createdAt,value
2019-03-29T00:01:28.665Z,8.87
2019-03-29T00:04:34.602Z,9.07
2019-03-29T00:07:41.891Z,9.40
2019-03-29T00:10:48.131Z,8.90
2019-03-29T00:13:53.998Z,8.10
2019-03-29T00:17:00.960Z,9.27
2019-03-29T00:20:07.116Z,9.93
2019-03-29T00:23:13.115Z,8.40
2019-03-29T00:26:18.912Z,8.53
2019-03-29T00:29:24.771Z,8.93
2019-03-29T00:32:31.244Z,8.87
2019-03-29T00:35:37.860Z,8.73
2019-03-29T00:38:43.717Z,8.70
2019-03-29T00:41:50.294Z,8.80
2019-03-29T00:44:57.135Z,9.20
2019-03-29T00:48:03.082Z,8.80
2019-03-29T00:51:11.591Z,10.30
2019-03-29T00:54:17.476Z,8.83
2019-03-29T00:57:23.413Z,8.33
2019-03-29T01:00:31.432Z,8.47
2019-03-29T01:03:37.169Z,8.93
2019-03-29T01:06:44.435Z,9.50
2019-03-29T01:09:50.411Z,8.97
2019-03-29T01:12:56.592Z,9.43
2019-03-29T01:16:02.598Z,9.30
2019-03-29T01:19:08.516Z,8.60
2019-03-29T01:22:14.445Z,9.93
2019-03-29T01:25:20.347Z,11.13
2019-03-29T01:28:26.743Z,12.27
2019-03-29T01:31:32.990Z,12.10
2019-03-29T01:34:38.915Z,12.73
2019-03-29T01:37:45.983Z,13.80
2019-03-29T01:40:52.071Z,12.90
2019-03-29T01:43:58.180Z,14.43
2019-03-29T01:47:04.306Z,14.57
2019-03-29T01:50:12.207Z,15.93
2019-03-29T01:53:19.412Z,15.00
2019-03-29T01:56:25.457Z,14.70
2019-03-29T01:59:31.381Z,14.93
2019-03-29T02:02:37.258Z,14.90
2019-03-29T02:05:43.208Z,15.50
2019-03-29T02:08:49.127Z,14.90
2019-03-29T02:11:55.083Z,14.73
2019-03-29T02:15:00.997Z,14.73
2019-03-29T02:18:06.896Z,15.70
2019-03-29T02:21:12.751Z,15.17
2019-03-29T02:24:19.582Z,14.13
2019-03-29T02:27:26.431Z,14.73
2019-03-29T02:30:33.637Z,15.13
2019-03-29T02:33:39.792Z,15.77
2019-03-29T02:36:45.667Z,15.77
2019-03-29T02:39:51.597Z,15.63
2019-03-29T02:42:57.858Z,15.77
2019-03-29T02:46:03.767Z,15.10
2019-03-29T02:49:09.846Z,16.13
2019-03-29T02:52:15.893Z,16.23
2019-03-29T02:55:21.826Z,15.70
2019-03-29T02:58:27.738Z,15.60
2019-03-29T03:01:33.681Z,15.37
2019-03-29T03:04:39.661Z,16.10
2019-03-29T03:07:45.574Z,15.97
2019-03-29T03:10:51.496Z,16.43
2019-03-29T03:13:57.592Z,15.10
2019-03-29T03:17:03.482Z,16.20
2019-03-29T03:20:14.620Z,16.13
2019-03-29T03:23:18.503Z,15.67
2019-03-29T03:26:24.765Z,15.73
2019-03-29T03:29:30.663Z,16.13
2019-03-29T03:32:36.586Z,16.20
2019-03-29T03:35:42.481Z,16.00
2019-03-29T03:38:48.350Z,17.43
2019-03-29T03:41:54.288Z,16.33
2019-03-29T03:45:00.546Z,16.20
2019-03-29T03:48:06.702Z,15.67
2019-03-29T03:51:12.678Z,17.23
2019-03-29T03:54:18.956Z,16.97
2019-03-29T03:57:25.713Z,16.10
2019-03-29T04:00:47.923Z,16.60
2019-03-29T04:03:53.804Z,16.13
2019-03-29T04:06:59.698Z,15.90
2019-03-29T04:10:06.286Z,17.17
2019-03-29T04:13:12.201Z,17.00
2019-03-29T04:16:18.125Z,17.40
2019-03-29T04:19:24.158Z,15.70
2019-03-29T04:22:30.060Z,16.10
2019-03-29T04:25:36.045Z,15.63
2019-03-29T04:28:41.986Z,15.60
2019-03-29T04:31:47.930Z,15.60
2019-03-29T04:34:53.872Z,15.10
2019-03-29T04:37:59.800Z,16.00
2019-03-29T04:41:06.390Z,15.23
2019-03-29T04:44:12.256Z,15.57
2019-03-29T04:47:18.134Z,15.83
2019-03-29T04:50:24.029Z,15.87
2019-03-29T04:53:29.915Z,16.07
2019-03-29T04:56:35.830Z,17.03
2019-03-29T04:59:42.082Z,15.73
2019-03-29T05:02:47.947Z,16.23
2019-03-29T05:05:53.845Z,15.03
2019-03-29T05:08:59.807Z,15.73
2019-03-29T05:12:05.719Z,16.80
2019-03-29T05:15:11.765Z,16.70
2019-03-29T05:18:19.783Z,15.97
2019-03-29T05:21:25.706Z,15.90
2019-03-29T05:24:31.635Z,15.57
2019-03-29T05:27:37.616Z,16.03
2019-03-29T05:30:43.485Z,16.27
2019-03-29T05:33:49.417Z,16.53
2019-03-29T05:36:58.328Z,17.33
2019-03-29T05:40:02.954Z,15.80
2019-03-29T05:43:08.935Z,15.63
2019-03-29T05:46:14.815Z,16.00
2019-03-29T05:49:20.768Z,16.17
2019-03-29T05:52:26.902Z,15.87
2019-03-29T05:55:34.511Z,16.00
2019-03-29T05:58:42.956Z,14.00
2019-03-29T06:01:48.914Z,14.20
2019-03-29T06:04:54.874Z,14.47
2019-03-29T06:08:00.839Z,14.67
2019-03-29T06:11:06.970Z,13.40
2019-03-29T06:14:12.824Z,14.13
2019-03-29T06:17:18.746Z,13.57
2019-03-29T06:20:24.671Z,13.50
2019-03-29T06:23:30.590Z,13.43
2019-03-29T06:26:36.539Z,13.70
2019-03-29T06:29:42.499Z,14.17
2019-03-29T06:32:48.511Z,14.13
2019-03-29T06:35:56.560Z,14.27
2019-03-29T06:39:05.291Z,12.20
2019-03-29T06:42:11.343Z,12.70
2019-03-29T06:45:17.239Z,14.00
2019-03-29T06:48:23.129Z,13.37
2019-03-29T06:51:29.069Z,14.10
2019-03-29T06:54:35.081Z,13.30
2019-03-29T06:57:41.045Z,13.73
2019-03-29T07:00:49.406Z,15.07
2019-03-29T07:03:55.383Z,13.30
2019-03-29T07:07:01.285Z,14.30
2019-03-29T07:10:07.360Z,14.00
2019-03-29T07:13:13.216Z,13.97
2019-03-29T07:16:19.125Z,12.60
2019-03-29T07:19:25.005Z,13.80
2019-03-29T07:22:34.431Z,13.80
2019-03-29T07:25:38.628Z,14.37
2019-03-29T07:28:44.547Z,13.00
2019-03-29T07:31:53.093Z,13.20
2019-03-29T07:34:58.042Z,13.70
2019-03-29T07:38:03.968Z,13.40
2019-03-29T07:41:09.936Z,13.67
2019-03-29T07:44:15.848Z,13.83
2019-03-29T07:47:21.843Z,15.07
2019-03-29T07:50:27.854Z,14.07
2019-03-29T07:53:33.714Z,14.77
2019-03-29T07:56:39.671Z,13.93
2019-03-29T07:59:45.559Z,13.70
2019-03-29T08:02:51.530Z,13.20
2019-03-29T08:05:57.614Z,13.43
2019-03-29T08:09:03.586Z,12.67
2019-03-29T08:12:09.610Z,12.90
2019-03-29T08:15:17.597Z,12.70
2019-03-29T08:18:23.472Z,14.30
2019-03-29T08:21:29.492Z,13.67
2019-03-29T08:24:35.315Z,13.60
2019-03-29T08:27:41.265Z,13.17
2019-03-29T08:30:47.116Z,12.80
2019-03-29T08:33:53.017Z,13.13
2019-03-29T08:36:58.925Z,12.90
2019-03-29T08:40:05.769Z,13.80
2019-03-29T08:43:11.682Z,12.60
2019-03-29T08:46:17.706Z,12.87
2019-03-29T08:49:23.614Z,12.73
2019-03-29T08:52:29.618Z,13.63
2019-03-29T08:55:45.531Z,14.07
2019-03-29T08:58:46.680Z,13.63
2019-03-29T09:01:54.360Z,14.03
2019-03-29T09:05:00.416Z,15.07
2019-03-29T09:08:07.359Z,13.50
2019-03-29T09:11:15.845Z,14.40
2019-03-29T09:14:21.751Z,15.77
2019-03-29T09:17:27.650Z,14.00
2019-03-29T09:20:34.654Z,13.43
2019-03-29T09:23:40.792Z,14.10
2019-03-29T09:26:46.701Z,13.93
2019-03-29T09:29:52.596Z,13.40
2019-03-29T09:32:58.482Z,13.40
2019-03-29T09:36:05.146Z,13.20
2019-03-29T09:39:11.260Z,13.13
2019-03-29T09:42:28.083Z,13.33
2019-03-29T09:45:24.932Z,13.00
2019-03-29T09:48:34.214Z,13.40
2019-03-29T09:51:38.475Z,13.17
2019-03-29T09:54:45.239Z,13.73
2019-03-29T09:57:51.162Z,13.10
2019-03-29T10:00:57.599Z,12.90
2019-03-29T10:04:03.570Z,13.07
2019-03-29T10:07:09.486Z,13.10
2019-03-29T10:10:15.415Z,12.40
2019-03-29T10:13:21.346Z,12.50
2019-03-29T10:16:27.598Z,11.80
2019-03-29T10:19:33.528Z,11.40
2019-03-29T10:22:39.509Z,11.20
2019-03-29T10:25:45.433Z,11.83
2019-03-29T10:28:51.822Z,12.70
2019-03-29T10:31:57.700Z,11.73
2019-03-29T10:35:03.724Z,12.77
2019-03-29T10:38:09.602Z,12.50
2019-03-29T10:41:15.831Z,12.80
2019-03-29T10:44:21.751Z,11.47
2019-03-29T10:47:42.603Z,11.40
2019-03-29T10:50:35.203Z,11.47
2019-03-29T10:53:41.177Z,11.83
2019-03-29T10:56:47.138Z,12.57
2019-03-29T10:59:53.029Z,13.07
2019-03-29T11:02:59.082Z,11.93
2019-03-29T11:06:04.994Z,12.27
2019-03-29T11:09:10.924Z,14.03
2019-03-29T11:12:16.951Z,13.07
2019-03-29T11:15:22.874Z,13.10
2019-03-29T11:18:28.764Z,12.77
2019-03-29T11:21:34.728Z,12.77
2019-03-29T11:24:40.619Z,13.63
2019-03-29T11:27:46.574Z,13.30
2019-03-29T11:30:52.474Z,13.27
2019-03-29T11:33:58.777Z,12.73
2019-03-29T11:37:04.707Z,12.67
2019-03-29T11:40:10.618Z,13.10
2019-03-29T11:43:26.516Z,12.80
2019-03-29T11:46:24.250Z,14.23
2019-03-29T11:49:30.386Z,13.30
2019-03-29T11:52:36.354Z,13.90
2019-03-29T11:55:42.250Z,13.50
2019-03-29T11:58:48.225Z,14.03
2019-03-29T12:01:54.144Z,14.40
2019-03-29T12:05:00.485Z,14.10
2019-03-29T12:08:06.955Z,13.60
2019-03-29T12:11:12.916Z,14.00
2019-03-29T12:14:18.849Z,13.37
2019-03-29T12:17:24.796Z,12.20
2019-03-29T12:20:31.105Z,12.57
2019-03-29T12:23:37.406Z,11.90
2019-03-29T12:26:43.395Z,14.20
2019-03-29T12:29:49.382Z,13.57
2019-03-29T12:32:55.320Z,14.10
2019-03-29T12:36:01.235Z,13.50
2019-03-29T12:39:08.018Z,13.70
2019-03-29T12:42:13.911Z,13.60
2019-03-29T12:45:19.770Z,14.00
2019-03-29T12:48:25.763Z,13.23
2019-03-29T12:51:31.979Z,13.50
2019-03-29T12:54:37.944Z,13.07
2019-03-29T12:57:43.920Z,13.43
2019-03-29T13:00:49.815Z,12.73
2019-03-29T13:03:55.765Z,14.17
2019-03-29T13:07:01.871Z,13.70
2019-03-29T13:10:08.271Z,13.93
2019-03-29T13:13:15.127Z,12.30
2019-03-29T13:16:21.140Z,14.37
2019-03-29T13:19:27.092Z,13.27
2019-03-29T13:22:34.814Z,13.50
2019-03-29T13:25:41.124Z,12.77
2019-03-29T13:28:59.180Z,15.77
2019-03-29T13:32:05.215Z,14.00
2019-03-29T13:35:27.594Z,14.00
2019-03-29T13:38:33.563Z,14.10
2019-03-29T13:41:39.625Z,13.03
2019-03-29T13:44:45.589Z,14.30
2019-03-29T13:47:51.535Z,12.83
2019-03-29T13:50:59.527Z,14.17
2019-03-29T13:54:05.047Z,14.60
2019-03-29T13:57:12.051Z,13.83
2019-03-29T14:00:18.065Z,14.80
2019-03-29T14:03:24.025Z,13.80
2019-03-29T14:06:30.040Z,14.37
2019-03-29T14:09:35.989Z,13.80
2019-03-29T14:12:42.016Z,13.90
2019-03-29T14:15:47.975Z,14.33
2019-03-29T14:18:53.887Z,12.63
2019-03-29T14:21:59.863Z,14.37
2019-03-29T14:25:06.335Z,13.00
2019-03-29T14:28:12.238Z,13.27
2019-03-29T14:31:18.249Z,14.43
2019-03-29T14:34:24.172Z,15.00
2019-03-29T14:37:30.199Z,14.30
2019-03-29T14:40:36.139Z,15.10
2019-03-29T14:43:42.086Z,15.30
2019-03-29T14:46:49.538Z,13.90
2019-03-29T14:49:55.447Z,14.93
2019-03-29T14:53:01.420Z,14.80
2019-03-29T14:56:07.315Z,14.10
2019-03-29T14:59:13.220Z,14.80
2019-03-29T15:02:22.012Z,15.40
2019-03-29T15:05:26.745Z,14.83
2019-03-29T15:08:45.475Z,14.97
2019-03-29T15:11:51.381Z,14.83
2019-03-29T15:15:06.049Z,15.30
2019-03-29T15:18:05.040Z,14.37
2019-03-29T15:21:11.016Z,15.00
2019-03-29T15:24:16.920Z,14.70
2019-03-29T15:27:22.769Z,15.47
2019-03-29T15:30:28.735Z,14.80
2019-03-29T15:33:34.635Z,15.80
2019-03-29T15:36:40.615Z,15.40
2019-03-29T15:39:46.651Z,14.37
2019-03-29T15:42:52.701Z,23.97
2019-03-29T15:45:58.595Z,15.27
2019-03-29T15:49:04.496Z,14.87
2019-03-29T15:52:10.491Z,14.77
2019-03-29T15:55:16.437Z,14.00
2019-03-29T15:58:22.398Z,14.33
2019-03-29T16:01:28.355Z,14.63
2019-03-29T16:04:34.201Z,14.37
2019-03-29T16:07:40.278Z,14.63
2019-03-29T16:10:46.171Z,15.53
2019-03-29T16:13:52.136Z,14.53
2019-03-29T16:16:59.544Z,13.70
2019-03-29T16:20:07.604Z,14.80
2019-03-29T16:23:13.544Z,14.67
2019-03-29T16:26:19.525Z,15.10
2019-03-29T16:29:43.326Z,14.97
2019-03-29T16:34:09.930Z,15.90
2019-03-29T16:37:17.649Z,14.80
2019-03-29T16:40:23.735Z,15.67
2019-03-29T16:43:29.713Z,18.90
2019-03-29T16:46:35.650Z,20.17
2019-03-29T16:49:42.040Z,36.13
2019-03-29T16:52:48.028Z,17.83
2019-03-29T16:55:54.014Z,14.30
2019-03-29T16:58:59.915Z,14.57
2019-03-29T17:02:06.946Z,16.50
2019-03-29T17:05:13.143Z,14.40
2019-03-29T17:08:19.265Z,14.70
2019-03-29T17:11:25.206Z,13.77
2019-03-29T17:14:31.185Z,13.50
2019-03-29T17:17:37.670Z,14.10
2019-03-29T17:20:43.730Z,13.73
2019-03-29T17:23:52.555Z,14.23
2019-03-29T17:26:57.356Z,15.13
2019-03-29T17:30:03.389Z,14.87
2019-03-29T17:33:09.352Z,15.13
2019-03-29T17:36:18.050Z,13.90
2019-03-29T17:39:24.095Z,14.40
2019-03-29T17:42:30.054Z,14.80
2019-03-29T17:45:36.045Z,14.40
2019-03-29T17:48:42.024Z,14.40
2019-03-29T17:51:49.990Z,14.80
2019-03-29T17:54:55.900Z,15.17
2019-03-29T17:58:01.980Z,15.70
2019-03-29T18:01:08.105Z,15.27
2019-03-29T18:04:14.061Z,14.73
2019-03-29T18:07:20.378Z,14.97
2019-03-29T18:10:28.479Z,15.50
2019-03-29T18:13:34.368Z,15.13
2019-03-29T18:16:40.353Z,14.83
2019-03-29T18:19:46.860Z,15.10
2019-03-29T18:22:52.939Z,15.53
2019-03-29T18:25:58.868Z,14.93
2019-03-29T18:29:04.781Z,16.37
2019-03-29T18:32:11.135Z,15.50
2019-03-29T18:35:17.035Z,16.03
2019-03-29T18:38:24.318Z,15.50
2019-03-29T18:41:30.186Z,16.43
2019-03-29T18:44:36.167Z,15.50
2019-03-29T18:47:42.079Z,16.23
2019-03-29T18:50:48.975Z,17.43
2019-03-29T18:53:54.940Z,15.90
2019-03-29T18:57:00.908Z,17.47
2019-03-29T19:00:07.761Z,16.73
2019-03-29T19:03:13.870Z,16.60
2019-03-29T19:06:19.888Z,15.47
2019-03-29T19:09:26.010Z,15.03
2019-03-29T19:12:32.085Z,16.27
2019-03-29T19:15:38.119Z,15.63
2019-03-29T19:18:46.428Z,17.07
2019-03-29T19:21:52.418Z,15.23
2019-03-29T19:24:58.531Z,15.93
2019-03-29T19:28:04.519Z,16.77
2019-03-29T19:31:10.913Z,17.67
2019-03-29T19:34:17.168Z,17.53
2019-03-29T19:37:23.375Z,16.07
2019-03-29T19:40:29.344Z,16.20
2019-03-29T19:43:35.323Z,16.77
2019-03-29T19:46:41.669Z,15.67
2019-03-29T19:49:47.655Z,16.87
2019-03-29T19:52:53.678Z,16.63
2019-03-29T19:55:59.741Z,15.17
2019-03-29T19:59:08.146Z,16.10
2019-03-29T20:02:14.099Z,15.80
2019-03-29T20:05:27.640Z,15.70
2019-03-29T20:08:33.602Z,16.23
2019-03-29T20:11:39.593Z,16.27
2019-03-29T20:14:46.881Z,15.70
2019-03-29T20:17:53.127Z,16.53
2019-03-29T20:21:00.263Z,16.33
2019-03-29T20:24:06.188Z,16.47
2019-03-29T20:27:12.106Z,17.10
2019-03-29T20:30:18.038Z,16.33
2019-03-29T20:33:23.807Z,16.87
2019-03-29T20:36:29.798Z,17.63
2019-03-29T20:39:35.738Z,17.23
2019-03-29T20:42:41.720Z,17.00
2019-03-29T20:45:47.773Z,17.47
2019-03-29T20:48:53.710Z,18.00
2019-03-29T20:51:59.605Z,17.13
2019-03-29T20:55:07.245Z,17.90
2019-03-29T20:58:13.203Z,17.80
2019-03-29T21:01:19.143Z,18.40
2019-03-29T21:04:25.030Z,18.10
2019-03-29T21:07:31.044Z,18.17
2019-03-29T21:10:36.930Z,18.30
2019-03-29T21:13:43.031Z,16.93
2019-03-29T21:16:49.120Z,19.90
2019-03-29T21:19:55.214Z,19.70
2019-03-29T21:23:01.243Z,17.83
2019-03-29T21:26:07.192Z,17.40
2019-03-29T21:29:14.014Z,18.30
2019-03-29T21:32:19.958Z,18.30
2019-03-29T21:35:26.034Z,18.17
2019-03-29T21:38:32.169Z,19.10
2019-03-29T21:41:38.339Z,18.93
2019-03-29T21:44:45.302Z,18.10
2019-03-29T21:48:04.145Z,19.10
2019-03-29T21:51:01.523Z,18.30
2019-03-29T21:54:07.533Z,19.20
2019-03-29T21:57:13.613Z,18.43
2019-03-29T22:00:20.659Z,19.27
2019-03-29T22:03:26.609Z,18.80
2019-03-29T22:06:32.649Z,19.13
2019-03-29T22:09:40.949Z,19.40
2019-03-29T22:12:47.246Z,19.10
2019-03-29T22:15:53.294Z,17.40
2019-03-29T22:18:59.253Z,17.60
2019-03-29T22:22:05.176Z,15.20
2019-03-29T22:25:11.239Z,13.27
2019-03-29T22:28:17.234Z,13.27
2019-03-29T22:31:23.343Z,12.30
2019-03-29T22:34:29.259Z,11.23
2019-03-29T22:37:36.753Z,12.73
2019-03-29T22:40:44.322Z,13.43
2019-03-29T22:43:52.922Z,14.37
2019-03-29T22:46:58.833Z,14.10
2019-03-29T22:50:05.156Z,14.40
2019-03-29T22:53:12.203Z,15.70
2019-03-29T22:56:18.134Z,14.07
2019-03-29T22:59:24.057Z,15.27
2019-03-29T23:02:30.143Z,14.37
2019-03-29T23:05:36.558Z,15.80
2019-03-29T23:08:44.764Z,16.13
2019-03-29T23:11:53.297Z,15.90
2019-03-29T23:14:59.321Z,15.80
2019-03-29T23:18:05.391Z,15.70
2019-03-29T23:21:11.403Z,15.33
2019-03-29T23:24:17.253Z,14.77
2019-03-29T23:27:23.157Z,15.30
2019-03-29T23:30:29.111Z,14.30
2019-03-29T23:33:35.130Z,13.63
2019-03-29T23:36:41.020Z,13.10
2019-03-29T23:39:47.269Z,14.07
2019-03-29T23:42:53.290Z,13.73
2019-03-29T23:46:02.780Z,13.47
2019-03-29T23:49:20.264Z,13.20
2019-03-29T23:52:17.765Z,12.07
2019-03-29T23:55:24.699Z,13.23
2019-03-29T23:58:30.598Z,13.20
